Huvudsida
METAR-TAF:

METAR-TAF

Flygplatser :

Kristiansunds flygplats. Kvernberget

Kristiansunds, Norge

latitud: 63-07N, longitud: 007-50E, höjd: 6 m

Aktuellt väderrapport

Denna rapport gjordes för 33 minuter sedan, klockan 16:50 UTC
Vind 3 kt från väst
Temperatur -3°C
Fuktighet 80%
Tryck 985 hPa
Sikt 10 km eller mer
Få moln på en höjd av 1500 ft, Cumulonimbus.

METAR: ENKB 161650Z 28003KT 9999 R07/P2000N R25/P2000N FEW015CB M03/M06 Q0985 RMK WIND 745FT 33004KT

Tid: 18:23 (17:23 UTC)

Väderprognos

Denna rapport gjordes för 1 timme och 25 minuter sedan, klockan 15:58 UTC
Prognos gäller från 16 kl. 15 UTC till 16 kl. 22 UTC
Vind 5 kt från nord
Sikt 10 km eller mer
Få moln på en höjd av 2000 ft
Sannolikhet 40% :
Temporärt
från 16 kl. 19 UTC till 16 kl. 22 UTC
Sikt: 0800 m
på en höjd av 600 ft
snöbyar

TAF: ENKB 161558Z 1615/1622 36005KT 9999 FEW020 PROB40 TEMPO 1619/1622 0800 SHSN VV006

Aktuella väderrapporter och prognoser från 4000 flygplatser (METAR- och TAF-rapporter).

De tillgängliga stationerna syns som gula och röda prickar på kartan.

För musen över prickarna för att se namnen på stationerna.

Klicka sedan för att få väderrapporter och prognoser.

För att ändra kartan: Klicka på de gröna knapparna med ett svart kors på för att zooma in; den gröna knappen med ett streck på för att zooma ut; eller på de gröna pilarna för angränsande kartor.


METAR-TAF: